createdAt,value
2023-04-28T00:00:55.124Z,5.97
2023-04-28T00:03:29.033Z,6.60
2023-04-28T00:06:02.458Z,6.80
2023-04-28T00:08:35.887Z,6.50
2023-04-28T00:11:11.014Z,6.88
2023-04-28T00:13:45.721Z,6.60
2023-04-28T00:16:19.000Z,5.95
2023-04-28T00:18:52.841Z,5.88
2023-04-28T00:21:26.074Z,6.30
2023-04-28T00:23:59.438Z,6.63
2023-04-28T00:26:32.637Z,6.20
2023-04-28T00:29:07.229Z,6.18
2023-04-28T00:31:40.440Z,5.85
2023-04-28T00:34:15.404Z,6.43
2023-04-28T00:36:48.811Z,6.15
2023-04-28T00:39:23.089Z,6.97
2023-04-28T00:41:56.385Z,4.90
2023-04-28T00:44:30.948Z,6.28
2023-04-28T00:47:04.254Z,7.07
2023-04-28T00:49:38.009Z,6.45
2023-04-28T00:52:11.814Z,7.47
2023-04-28T00:54:45.080Z,6.13
2023-04-28T00:57:18.289Z,7.07
2023-04-28T00:59:53.107Z,6.20
2023-04-28T01:02:27.764Z,5.97
2023-04-28T01:05:02.518Z,6.40
2023-04-28T01:07:37.204Z,6.78
2023-04-28T01:10:11.959Z,7.13
2023-04-28T01:12:45.149Z,6.95
2023-04-28T01:15:21.730Z,6.47
2023-04-28T01:17:58.594Z,6.93
2023-04-28T01:20:31.961Z,6.45
2023-04-28T01:23:05.349Z,6.70
2023-04-28T01:25:39.867Z,7.65
2023-04-28T01:28:13.292Z,6.50
2023-04-28T01:30:46.481Z,6.95
2023-04-28T01:33:19.677Z,7.10
2023-04-28T01:35:58.797Z,6.53
2023-04-28T01:38:31.993Z,7.82
2023-04-28T01:41:06.834Z,6.88
2023-04-28T01:43:40.018Z,5.72
2023-04-28T01:46:13.263Z,7.00
2023-04-28T01:48:46.548Z,6.97
2023-04-28T01:51:19.735Z,7.53
2023-04-28T01:53:52.992Z,7.55
2023-04-28T01:56:27.748Z,7.50
2023-04-28T01:59:03.021Z,7.70
2023-04-28T02:01:36.494Z,7.35
2023-04-28T02:04:10.017Z,8.38
2023-04-28T02:06:44.179Z,8.10
2023-04-28T02:09:19.488Z,7.05
2023-04-28T02:11:54.038Z,7.30
2023-04-28T02:14:28.260Z,8.05
2023-04-28T02:17:03.071Z,7.35
2023-04-28T02:19:36.337Z,6.88
2023-04-28T02:22:09.531Z,8.50
2023-04-28T02:24:42.713Z,7.57
2023-04-28T02:27:17.293Z,8.40
2023-04-28T02:29:50.615Z,7.57
2023-04-28T02:32:23.882Z,7.93
2023-04-28T02:34:58.023Z,8.30
2023-04-28T02:37:31.940Z,8.35
2023-04-28T02:40:05.987Z,7.85
2023-04-28T02:42:40.576Z,8.05
2023-04-28T02:45:14.088Z,7.35
2023-04-28T02:47:47.266Z,7.78
2023-04-28T02:50:20.779Z,8.65
2023-04-28T02:52:54.100Z,7.22
2023-04-28T02:55:27.332Z,8.77
2023-04-28T02:58:01.965Z,8.50
2023-04-28T03:00:35.211Z,7.07
2023-04-28T03:03:08.627Z,8.50
2023-04-28T03:05:41.993Z,7.47
2023-04-28T03:08:15.200Z,7.60
2023-04-28T03:10:49.311Z,8.13
2023-04-28T03:13:24.363Z,8.30
2023-04-28T03:15:57.682Z,7.68
2023-04-28T03:18:54.806Z,7.90
2023-04-28T03:21:29.002Z,8.35
2023-04-28T03:24:04.798Z,7.38
2023-04-28T03:26:38.787Z,8.25
2023-04-28T03:29:13.396Z,8.98
2023-04-28T03:31:46.705Z,7.65
2023-04-28T03:34:19.926Z,8.77
2023-04-28T03:36:53.122Z,8.73
2023-04-28T03:39:32.557Z,8.02
2023-04-28T03:42:06.157Z,7.88
2023-04-28T03:44:59.075Z,8.40
2023-04-28T03:47:32.427Z,7.45
2023-04-28T03:50:06.274Z,8.70
2023-04-28T03:57:47.371Z,8.02
2023-04-28T04:00:22.035Z,8.45
2023-04-28T04:02:58.568Z,8.10
2023-04-28T04:05:31.988Z,7.63
2023-04-28T04:08:06.013Z,9.20
2023-04-28T04:10:39.722Z,8.48
2023-04-28T04:13:13.059Z,8.68
2023-04-28T04:15:50.117Z,9.55
2023-04-28T04:18:23.937Z,8.98
2023-04-28T04:21:20.053Z,9.07
2023-04-28T04:23:54.829Z,9.80
2023-04-28T04:26:28.201Z,8.98
2023-04-28T04:29:01.539Z,10.55
2023-04-28T04:31:36.405Z,10.32
2023-04-28T04:34:10.208Z,10.32
2023-04-28T04:36:44.236Z,10.98
2023-04-28T04:39:18.664Z,11.27
2023-04-28T04:41:51.903Z,11.07
2023-04-28T04:44:38.672Z,11.38
2023-04-28T04:47:17.472Z,11.25
2023-04-28T04:49:50.966Z,8.77
2023-04-28T04:52:25.032Z,10.80
2023-04-28T04:54:58.329Z,11.40
2023-04-28T04:57:31.950Z,11.77
2023-04-28T05:00:08.897Z,11.27
2023-04-28T05:02:44.492Z,11.18
2023-04-28T05:05:22.033Z,10.60
2023-04-28T05:08:25.311Z,11.75
2023-04-28T05:10:58.767Z,11.85
2023-04-28T05:13:32.010Z,14.15
2023-04-28T05:16:08.593Z,13.80
2023-04-28T05:19:07.486Z,16.27
2023-04-28T05:21:40.784Z,19.33
2023-04-28T05:24:14.259Z,21.50
2023-04-28T05:26:47.680Z,21.42
2023-04-28T05:29:21.664Z,21.75
2023-04-28T05:31:54.937Z,21.70
2023-04-28T05:34:31.541Z,20.10
2023-04-28T05:37:04.888Z,22.45
2023-04-28T05:39:39.124Z,20.38
2023-04-28T05:44:46.994Z,19.38
2023-04-28T05:47:20.276Z,20.20
2023-04-28T05:49:55.560Z,19.20
2023-04-28T05:52:29.406Z,19.85
2023-04-28T05:57:49.211Z,17.55
2023-04-28T06:00:26.458Z,18.08
2023-04-28T06:03:01.974Z,16.65
2023-04-28T06:08:10.412Z,16.75
2023-04-28T06:10:43.757Z,15.18
2023-04-28T06:13:16.907Z,16.83
2023-04-28T06:15:50.190Z,15.90
2023-04-28T06:18:24.594Z,15.43
2023-04-28T06:20:59.217Z,15.90
2023-04-28T06:23:32.713Z,15.20
2023-04-28T06:26:06.036Z,15.48
2023-04-28T06:28:39.278Z,14.80
2023-04-28T06:31:14.290Z,14.13
2023-04-28T06:33:47.592Z,14.63
2023-04-28T06:36:22.172Z,14.88
2023-04-28T06:38:55.841Z,13.52
2023-04-28T06:41:29.352Z,13.98
2023-04-28T06:44:03.270Z,14.55
2023-04-28T06:46:38.395Z,13.45
2023-04-28T06:49:11.713Z,13.27
2023-04-28T06:51:46.532Z,11.60
2023-04-28T06:54:19.980Z,9.98
2023-04-28T06:56:53.228Z,8.45
2023-04-28T06:59:26.563Z,7.85
2023-04-28T07:01:59.798Z,8.20
2023-04-28T07:04:33.029Z,9.07
2023-04-28T07:07:08.310Z,6.93
2023-04-28T07:09:41.498Z,7.82
2023-04-28T07:12:15.011Z,7.38
2023-04-28T07:14:48.203Z,6.15
2023-04-28T07:17:21.417Z,6.63
2023-04-28T07:19:54.566Z,6.72
2023-04-28T07:22:29.112Z,6.78
2023-04-28T07:25:02.344Z,5.95
2023-04-28T07:27:35.563Z,6.13
2023-04-28T07:30:25.617Z,5.55
2023-04-28T07:32:59.711Z,5.68
2023-04-28T07:35:32.945Z,5.88
2023-04-28T07:38:07.632Z,5.47
2023-04-28T07:40:40.971Z,5.38
2023-04-28T07:43:14.562Z,5.00
2023-04-28T07:45:49.072Z,5.13
2023-04-28T07:48:22.502Z,4.88
2023-04-28T07:50:55.824Z,4.97
2023-04-28T07:53:30.425Z,4.18
2023-04-28T07:56:03.838Z,4.43
2023-04-28T07:58:37.635Z,4.93
2023-04-28T08:01:12.028Z,5.00
2023-04-28T08:03:45.385Z,4.55
2023-04-28T08:06:19.167Z,4.22
2023-04-28T08:08:53.732Z,4.25
2023-04-28T08:11:27.002Z,3.95
2023-04-28T08:14:02.803Z,4.72
2023-04-28T08:16:38.486Z,3.88
2023-04-28T08:19:11.685Z,4.57
2023-04-28T08:21:44.882Z,4.15
2023-04-28T08:24:19.415Z,4.50
2023-04-28T08:26:52.615Z,4.50
2023-04-28T08:29:26.094Z,4.13
2023-04-28T08:32:01.325Z,3.80
2023-04-28T08:34:34.723Z,4.00
2023-04-28T08:37:08.034Z,4.05
2023-04-28T08:39:42.830Z,3.15
2023-04-28T08:42:16.758Z,3.20
2023-04-28T08:44:52.810Z,3.67
2023-04-28T08:47:28.291Z,3.80
2023-04-28T08:50:04.965Z,3.72
2023-04-28T08:52:38.223Z,3.53
2023-04-28T08:55:15.721Z,3.22
2023-04-28T08:57:51.504Z,3.38
2023-04-28T09:00:25.201Z,3.90
2023-04-28T09:02:58.518Z,3.60
2023-04-28T09:05:32.248Z,4.13
2023-04-28T09:10:40.343Z,3.15
2023-04-28T09:13:26.399Z,3.08
2023-04-28T09:16:02.905Z,4.25
2023-04-28T09:18:36.161Z,3.35
2023-04-28T09:21:10.670Z,3.67
2023-04-28T09:23:49.148Z,3.65
2023-04-28T09:26:24.580Z,3.60
2023-04-28T09:29:13.790Z,3.72
2023-04-28T09:31:47.070Z,3.67
2023-04-28T09:34:20.399Z,3.47
2023-04-28T09:36:53.897Z,3.85
2023-04-28T09:39:32.423Z,3.50
2023-04-28T09:42:07.128Z,3.30
2023-04-28T09:44:42.647Z,4.07
2023-04-28T09:47:22.469Z,3.83
2023-04-28T09:49:56.900Z,3.15
2023-04-28T09:52:30.110Z,3.83
2023-04-28T09:55:04.461Z,3.40
2023-04-28T09:57:39.744Z,3.90
2023-04-28T10:00:15.133Z,2.67
2023-04-28T10:02:51.616Z,5.80
2023-04-28T10:05:25.563Z,4.30
2023-04-28T10:08:00.308Z,4.00
2023-04-28T10:10:34.749Z,5.05
2023-04-28T10:13:09.655Z,3.97
2023-04-28T10:15:43.692Z,4.85
2023-04-28T10:18:17.269Z,4.38
2023-04-28T10:20:57.500Z,4.43
2023-04-28T10:23:54.061Z,4.00
2023-04-28T10:26:52.362Z,4.05
2023-04-28T10:29:27.917Z,3.63
2023-04-28T10:32:17.811Z,4.50
2023-04-28T10:34:51.551Z,3.30
2023-04-28T10:40:35.946Z,4.50
2023-04-28T10:43:10.140Z,3.20
2023-04-28T10:46:06.253Z,4.68
2023-04-28T10:49:06.913Z,3.83
2023-04-28T10:51:40.139Z,4.53
2023-04-28T10:54:17.938Z,3.67
2023-04-28T10:57:31.079Z,3.92
2023-04-28T11:00:36.879Z,3.72
2023-04-28T11:03:32.205Z,3.63
2023-04-28T11:06:22.003Z,4.32
2023-04-28T11:08:56.588Z,3.75
2023-04-28T11:11:30.539Z,4.00
2023-04-28T11:14:32.527Z,3.47
2023-04-28T11:17:07.381Z,4.25
2023-04-28T11:19:43.715Z,3.50
2023-04-28T11:22:18.623Z,3.35
2023-04-28T11:24:59.037Z,3.97
2023-04-28T11:27:33.509Z,3.42
2023-04-28T11:30:22.661Z,3.38
2023-04-28T11:32:56.341Z,3.40
2023-04-28T11:35:42.222Z,3.28
2023-04-28T11:38:15.468Z,3.10
2023-04-28T11:40:58.366Z,3.85
2023-04-28T11:43:43.957Z,3.20
2023-04-28T11:46:21.850Z,3.05
2023-04-28T11:49:04.543Z,3.58
2023-04-28T11:51:40.161Z,4.30
2023-04-28T11:54:14.905Z,3.45
2023-04-28T11:56:48.102Z,3.05
2023-04-28T11:59:25.820Z,2.83
2023-04-28T12:02:02.801Z,2.47
2023-04-28T12:04:37.848Z,3.38
2023-04-28T12:07:14.136Z,3.47
2023-04-28T12:09:49.764Z,3.42
2023-04-28T12:12:45.240Z,3.67
2023-04-28T12:15:25.424Z,3.35
2023-04-28T12:18:11.498Z,3.60
2023-04-28T12:20:44.850Z,3.95
2023-04-28T12:23:30.722Z,4.13
2023-04-28T12:26:04.199Z,3.20
2023-04-28T12:28:39.727Z,4.05
2023-04-28T12:31:13.725Z,3.25
2023-04-28T12:33:46.947Z,3.53
2023-04-28T12:36:20.126Z,3.75
2023-04-28T12:38:54.713Z,2.65
2023-04-28T12:41:27.961Z,3.30
2023-04-28T12:44:02.129Z,3.72
2023-04-28T12:46:35.383Z,3.92
2023-04-28T12:49:08.629Z,3.63
2023-04-28T12:51:41.928Z,3.50
2023-04-28T12:54:16.445Z,4.78
2023-04-28T12:56:50.751Z,3.53
2023-04-28T12:59:24.301Z,2.70
2023-04-28T13:01:57.591Z,2.90
2023-04-28T13:04:31.535Z,3.10
2023-04-28T13:07:07.244Z,3.25
2023-04-28T13:09:43.004Z,3.47
2023-04-28T13:12:16.405Z,3.47
2023-04-28T13:14:49.856Z,3.10
2023-04-28T13:17:23.131Z,3.58
2023-04-28T13:19:56.458Z,3.92
2023-04-28T13:22:29.685Z,2.53
2023-04-28T13:25:04.789Z,3.20
2023-04-28T13:27:38.550Z,3.47
2023-04-28T13:30:14.252Z,5.55
2023-04-28T13:32:47.439Z,2.95
2023-04-28T13:35:21.145Z,2.95
2023-04-28T13:40:36.324Z,3.33
2023-04-28T13:43:09.513Z,3.28
2023-04-28T13:45:42.741Z,3.03
2023-04-28T13:48:16.451Z,3.22
2023-04-28T13:50:49.632Z,3.45
2023-04-28T13:53:22.792Z,4.18
2023-04-28T13:55:58.313Z,3.00
2023-04-28T13:58:31.543Z,2.50
2023-04-28T14:01:04.961Z,2.58
2023-04-28T14:03:38.281Z,3.10
2023-04-28T14:06:12.363Z,3.47
2023-04-28T14:08:45.686Z,2.90
2023-04-28T14:11:20.232Z,2.90
2023-04-28T14:13:53.455Z,3.30
2023-04-28T14:16:26.689Z,3.70
2023-04-28T14:18:59.994Z,3.47
2023-04-28T14:21:33.222Z,3.08
2023-04-28T14:24:06.821Z,3.33
2023-04-28T14:26:43.947Z,4.85
2023-04-28T14:29:17.355Z,3.28
2023-04-28T14:31:50.538Z,3.53
2023-04-28T14:34:24.346Z,3.60
2023-04-28T14:36:57.791Z,4.20
2023-04-28T14:39:31.295Z,3.15
2023-04-28T14:42:06.743Z,3.53
2023-04-28T14:44:40.429Z,3.88
2023-04-28T14:47:13.679Z,3.30
2023-04-28T14:49:48.619Z,3.40
2023-04-28T14:52:22.361Z,3.53
2023-04-28T14:57:30.576Z,3.50
2023-04-28T15:00:04.025Z,3.22
2023-04-28T15:02:39.681Z,3.13
2023-04-28T15:05:13.396Z,3.50
2023-04-28T15:07:46.781Z,3.67
2023-04-28T15:10:19.959Z,3.60
2023-04-28T15:12:54.679Z,3.20
2023-04-28T15:15:27.839Z,3.13
2023-04-28T15:18:01.543Z,2.88
2023-04-28T15:23:10.843Z,4.45
2023-04-28T15:25:44.075Z,4.28
2023-04-28T15:28:18.575Z,3.53
2023-04-28T15:30:51.730Z,3.42
2023-04-28T15:33:24.962Z,3.97
2023-04-28T15:35:58.593Z,3.95
2023-04-28T15:38:31.922Z,3.53
2023-04-28T15:41:05.310Z,4.15
2023-04-28T15:43:39.830Z,3.40
2023-04-28T15:46:14.904Z,4.10
2023-04-28T15:48:48.559Z,3.75
2023-04-28T15:51:21.998Z,4.47
2023-04-28T15:53:55.844Z,3.53
2023-04-28T15:56:31.025Z,2.75
2023-04-28T15:59:05.629Z,4.00
2023-04-28T16:01:38.840Z,3.67
2023-04-28T16:04:12.152Z,4.32
2023-04-28T16:06:45.467Z,4.65
2023-04-28T16:09:18.644Z,3.80
2023-04-28T16:11:51.822Z,3.88
2023-04-28T16:14:26.588Z,3.95
2023-04-28T16:16:59.888Z,3.72
2023-04-28T16:19:33.616Z,4.07
2023-04-28T16:24:42.634Z,3.20
2023-04-28T16:27:15.920Z,3.97
2023-04-28T16:29:51.032Z,5.05
2023-04-28T16:32:24.406Z,4.35
2023-04-28T16:34:59.123Z,4.00
2023-04-28T16:37:32.321Z,4.47
2023-04-28T16:40:06.513Z,3.78
2023-04-28T16:42:40.676Z,4.15
2023-04-28T16:45:15.569Z,4.30
2023-04-28T16:47:48.801Z,4.18
2023-04-28T16:50:22.006Z,4.55
2023-04-28T16:52:55.133Z,4.43
2023-04-28T16:55:28.611Z,5.15
2023-04-28T16:58:01.804Z,5.25
2023-04-28T17:00:36.541Z,5.28
2023-04-28T17:03:09.871Z,5.40
2023-04-28T17:05:43.119Z,6.22
2023-04-28T17:08:16.434Z,4.68
2023-04-28T17:10:49.640Z,4.70
2023-04-28T17:13:22.794Z,5.65
2023-04-28T17:15:58.543Z,6.13
2023-04-28T17:18:31.937Z,5.47
2023-04-28T17:21:05.552Z,5.90
2023-04-28T17:23:39.434Z,6.68
2023-04-28T17:26:12.723Z,5.82
2023-04-28T17:28:46.045Z,5.35
2023-04-28T17:31:20.735Z,5.18
2023-04-28T17:33:54.727Z,5.25
2023-04-28T17:36:28.853Z,5.50
2023-04-28T17:39:03.376Z,5.20
2023-04-28T17:41:37.087Z,5.30
2023-04-28T17:44:10.287Z,5.55
2023-04-28T17:46:44.883Z,5.07
2023-04-28T17:49:18.108Z,5.57
2023-04-28T17:51:51.255Z,4.78
2023-04-28T17:54:24.546Z,4.95
2023-04-28T17:56:57.824Z,4.63
2023-04-28T17:59:31.150Z,5.70
2023-04-28T18:02:05.746Z,5.65
2023-04-28T18:04:39.057Z,4.88
2023-04-28T18:07:12.220Z,5.38
2023-04-28T18:09:45.426Z,6.03
2023-04-28T18:12:18.614Z,5.35
2023-04-28T18:14:52.190Z,6.13
2023-04-28T18:22:32.993Z,5.15
2023-04-28T18:25:06.847Z,4.82
2023-04-28T18:27:40.058Z,5.07
2023-04-28T18:30:13.624Z,4.80
2023-04-28T18:32:48.862Z,5.50
2023-04-28T18:35:22.080Z,5.72
2023-04-28T18:37:55.316Z,5.63
2023-04-28T18:40:32.963Z,5.30
2023-04-28T18:43:06.904Z,5.57
2023-04-28T18:45:41.534Z,6.47
2023-04-28T18:48:17.829Z,6.10
2023-04-28T18:50:51.660Z,6.80
2023-04-28T18:53:24.832Z,6.38
2023-04-28T18:55:58.300Z,6.38
2023-04-28T18:58:31.507Z,6.57
2023-04-28T19:01:05.084Z,6.63
2023-04-28T19:03:39.838Z,6.88
2023-04-28T19:06:13.635Z,5.80
2023-04-28T19:08:46.816Z,6.53
2023-04-28T19:11:20.042Z,6.20
2023-04-28T19:13:54.173Z,6.55
2023-04-28T19:16:27.429Z,6.45
2023-04-28T19:19:02.011Z,6.20
2023-04-28T19:21:35.837Z,6.43
2023-04-28T19:26:42.205Z,6.38
2023-04-28T19:29:17.321Z,5.53
2023-04-28T19:31:50.664Z,6.30
2023-04-28T19:34:25.386Z,6.20
2023-04-28T19:36:58.888Z,7.72
2023-04-28T19:39:34.119Z,6.18
2023-04-28T19:42:07.430Z,8.10
2023-04-28T19:44:40.637Z,7.25
2023-04-28T19:47:14.586Z,7.97
2023-04-28T19:49:50.924Z,7.60
2023-04-28T19:52:24.433Z,7.03
2023-04-28T19:54:58.086Z,7.47
2023-04-28T19:57:31.324Z,8.63
2023-04-28T20:00:05.027Z,7.97
2023-04-28T20:02:42.824Z,7.22
2023-04-28T20:05:17.501Z,7.13
2023-04-28T20:07:50.940Z,6.82
2023-04-28T20:10:24.368Z,8.10
2023-04-28T20:12:57.772Z,7.97
2023-04-28T20:15:30.965Z,6.95
2023-04-28T20:18:04.213Z,6.90
2023-04-28T20:20:39.017Z,6.93
2023-04-28T20:23:12.536Z,7.45
2023-04-28T20:25:45.894Z,8.18
2023-04-28T20:28:19.058Z,7.13
2023-04-28T20:30:53.308Z,7.82
2023-04-28T20:33:26.482Z,7.78
2023-04-28T20:36:01.024Z,7.60
2023-04-28T20:38:34.590Z,7.57
2023-04-28T20:41:08.622Z,7.00
2023-04-28T20:43:42.268Z,8.73
2023-04-28T20:46:15.874Z,7.22
2023-04-28T20:48:49.162Z,6.32
2023-04-28T20:51:24.069Z,6.35
2023-04-28T20:53:57.924Z,7.20
2023-04-28T20:56:31.251Z,6.88
2023-04-28T20:59:04.699Z,7.68
2023-04-28T21:01:38.219Z,6.75
2023-04-28T21:04:11.886Z,6.20
2023-04-28T21:06:48.973Z,6.97
2023-04-28T21:09:24.883Z,6.78
2023-04-28T21:11:58.198Z,7.13
2023-04-28T21:14:31.447Z,7.95
2023-04-28T21:17:04.862Z,7.13
2023-04-28T21:19:38.129Z,6.95
2023-04-28T21:22:14.172Z,8.23
2023-04-28T21:24:47.373Z,8.20
2023-04-28T21:27:20.583Z,6.53
2023-04-28T21:29:53.866Z,6.97
2023-04-28T21:32:27.051Z,7.57
2023-04-28T21:35:00.291Z,7.10
2023-04-28T21:37:35.204Z,6.40
2023-04-28T21:40:09.608Z,6.60
2023-04-28T21:42:43.019Z,7.40
2023-04-28T21:45:16.363Z,6.20
2023-04-28T21:47:50.049Z,6.55
2023-04-28T21:50:23.619Z,7.43
2023-04-28T21:52:59.264Z,7.28
2023-04-28T21:55:32.423Z,7.47
2023-04-28T21:58:05.672Z,6.82
2023-04-28T22:00:41.061Z,6.72
2023-04-28T22:03:15.400Z,5.65
2023-04-28T22:05:48.866Z,7.28
2023-04-28T22:08:23.561Z,7.05
2023-04-28T22:10:56.757Z,5.93
2023-04-28T22:13:30.170Z,6.65
2023-04-28T22:16:03.728Z,6.40
2023-04-28T22:18:37.140Z,6.95
2023-04-28T22:21:11.168Z,6.15
2023-04-28T22:23:45.755Z,6.80
2023-04-28T22:26:19.183Z,6.20
2023-04-28T22:28:52.416Z,6.53
2023-04-28T22:31:25.862Z,6.50
2023-04-28T22:33:59.073Z,5.05
2023-04-28T22:36:32.543Z,6.60
2023-04-28T22:39:07.645Z,6.90
2023-04-28T22:41:41.309Z,6.75
2023-04-28T22:44:14.614Z,6.43
2023-04-28T22:46:48.018Z,7.32
2023-04-28T22:49:24.728Z,6.35
2023-04-28T22:51:58.179Z,6.97
2023-04-28T22:54:32.999Z,5.93
2023-04-28T22:57:06.160Z,7.80
2023-04-28T22:59:39.343Z,8.05
2023-04-28T23:02:13.671Z,7.00
2023-04-28T23:04:46.985Z,6.43
2023-04-28T23:07:20.170Z,6.80
2023-04-28T23:09:54.851Z,6.22
2023-04-28T23:12:28.031Z,8.32
2023-04-28T23:15:01.247Z,6.65
2023-04-28T23:17:34.525Z,7.25
2023-04-28T23:20:08.720Z,6.32
2023-04-28T23:22:41.935Z,6.97
2023-04-28T23:25:16.602Z,6.50
2023-04-28T23:27:49.793Z,6.85
2023-04-28T23:30:23.003Z,7.72
2023-04-28T23:32:56.554Z,6.10
2023-04-28T23:35:29.783Z,7.60
2023-04-28T23:38:03.137Z,7.10
2023-04-28T23:40:37.717Z,6.97
2023-04-28T23:43:10.925Z,7.18
2023-04-28T23:45:44.428Z,7.05
2023-04-28T23:48:17.632Z,7.80
2023-04-28T23:50:50.966Z,6.57
2023-04-28T23:53:24.170Z,7.10
2023-04-28T23:56:59.211Z,6.93
2023-04-28T23:59:32.397Z,6.78
